Time,TemperatureF,DewpointF,PressureIn,WindDirection,WindDirectionDegrees,WindSpeedMPH,WindSpeedGustMPH,Humidity,HourlyPrecipIn,Conditions,Clouds,dailyrainin,SoftwareType,DateUTC
2014-01-15 00:00:00,41.2,39.6,29.75,WNW,297,0.0,1.0,94,0.00,,,0.00,WeatherCatV1.15B25,2014-01-15 05:00:00,
2014-01-15 00:01:00,41.1,39.5,29.75,West,276,0.0,2.0,94,0.00,,,0.00,WeatherCatV1.15B25,2014-01-15 05:01:00,
2014-01-15 00:02:00,41.1,39.5,29.75,West,275,0.0,2.0,94,0.00,,,0.00,WeatherCatV1.15B25,2014-01-15 05:02:00,
2014-01-15 00:04:00,41.0,39.4,29.75,West,280,0.0,1.0,94,0.00,,,0.00,WeatherCatV1.15B25,2014-01-15 05:04:00,
2014-01-15 00:09:00,40.6,39.0,29.76,West,280,0.0,0.0,94,0.00,,,0.00,WeatherCatV1.15B25,2014-01-15 05:09:00,
2014-01-15 00:14:00,40.3,38.7,29.76,West,280,0.0,0.0,94,0.00,,,0.00,WeatherCatV1.15B25,2014-01-15 05:14:00,
2014-01-15 00:19:00,40.0,38.4,29.76,West,264,0.0,0.0,94,0.00,,,0.00,WeatherCatV1.15B25,2014-01-15 05:19:00,
2014-01-15 00:24:00,39.6,38.0,29.77,WSW,255,0.0,0.0,94,0.00,,,0.00,WeatherCatV1.15B25,2014-01-15 05:24:00,
2014-01-15 00:29:00,39.1,37.5,29.77,WSW,255,0.0,0.0,94,0.00,,,0.00,WeatherCatV1.15B25,2014-01-15 05:29:00,
2014-01-15 00:34:00,38.8,37.5,29.77,WSW,257,0.0,0.0,95,0.00,,,0.00,WeatherCatV1.15B25,2014-01-15 05:34:00,
2014-01-15 00:39:00,38.6,37.3,29.77,West,260,0.0,1.0,95,0.00,,,0.00,WeatherCatV1.15B25,2014-01-15 05:39:00,
2014-01-15 00:44:00,38.4,37.1,29.77,West,260,0.0,0.0,95,0.00,,,0.00,WeatherCatV1.15B25,2014-01-15 05:44:00,
2014-01-15 00:49:00,38.1,36.8,29.78,West,260,0.0,0.0,95,0.00,,,0.00,WeatherCatV1.15B25,2014-01-15 05:49:00,
2014-01-15 00:54:00,37.8,36.5,29.78,West,260,0.0,0.0,95,0.00,,,0.00,WeatherCatV1.15B25,2014-01-15 05:54:00,
2014-01-15 00:59:00,37.5,36.2,29.78,West,260,0.0,0.0,95,0.00,,,0.00,WeatherCatV1.15B25,2014-01-15 05:59:00,
2014-01-15 01:04:00,37.2,35.9,29.79,West,260,0.0,0.0,95,0.00,,,0.00,WeatherCatV1.15B25,2014-01-15 06:04:00,
2014-01-15 01:09:00,37.0,35.7,29.79,West,260,0.0,0.0,95,0.00,,,0.00,WeatherCatV1.15B25,2014-01-15 06:09:00,
2014-01-15 01:14:00,36.8,35.5,29.79,West,260,0.0,0.0,95,0.00,,,0.00,WeatherCatV1.15B25,2014-01-15 06:14:00,
2014-01-15 01:19:00,36.8,35.8,29.79,West,260,0.0,0.0,96,0.00,,,0.00,WeatherCatV1.15B25,2014-01-15 06:19:00,
2014-01-15 01:24:00,36.6,35.6,29.80,West,260,0.0,0.0,96,0.00,,,0.00,WeatherCatV1.15B25,2014-01-15 06:24:00,
2014-01-15 01:29:00,36.1,34.8,29.80,West,260,0.0,0.0,95,0.00,,,0.00,WeatherCatV1.15B25,2014-01-15 06:29:00,
2014-01-15 01:34:00,35.6,34.3,29.80,West,260,0.0,0.0,95,0.00,,,0.00,WeatherCatV1.15B25,2014-01-15 06:34:00,
2014-01-15 01:39:00,35.2,33.9,29.80,West,260,0.0,0.0,95,0.00,,,0.00,WeatherCatV1.15B25,2014-01-15 06:39:00,
2014-01-15 01:44:00,35.1,33.8,29.81,West,260,0.0,0.0,95,0.00,,,0.00,WeatherCatV1.15B25,2014-01-15 06:44:00,
2014-01-15 01:49:00,34.9,33.9,29.81,West,260,0.0,0.0,96,0.00,,,0.00,WeatherCatV1.15B25,2014-01-15 06:49:00,
2014-01-15 01:54:00,34.9,33.9,29.81,West,260,0.0,0.0,96,0.00,,,0.00,WeatherCatV1.15B25,2014-01-15 06:54:00,
2014-01-15 01:59:00,35.0,34.0,29.81,West,260,0.0,0.0,96,0.00,,,0.00,WeatherCatV1.15B25,2014-01-15 06:59:00,
2014-01-15 02:04:00,34.7,33.7,29.81,West,260,0.0,0.0,96,0.00,,,0.00,WeatherCatV1.15B25,2014-01-15 07:04:00,
2014-01-15 02:09:00,34.3,33.3,29.81,West,260,0.0,0.0,96,0.00,,,0.00,WeatherCatV1.15B25,2014-01-15 07:09:00,
2014-01-15 02:14:00,34.1,33.1,29.81,West,260,0.0,0.0,96,0.00,,,0.00,WeatherCatV1.15B25,2014-01-15 07:14:00,
2014-01-15 02:19:00,34.3,33.3,29.81,West,260,0.0,0.0,96,0.00,,,0.00,WeatherCatV1.15B25,2014-01-15 07:19:00,
2014-01-15 02:24:00,34.4,33.4,29.82,West,260,0.0,0.0,96,0.00,,,0.00,WeatherCatV1.15B25,2014-01-15 07:24:00,
2014-01-15 02:29:00,34.1,33.1,29.82,West,260,0.0,0.0,96,0.00,,,0.00,WeatherCatV1.15B25,2014-01-15 07:29:00,
2014-01-15 02:34:00,33.8,32.8,29.83,West,260,0.0,0.0,96,0.00,,,0.00,WeatherCatV1.15B25,2014-01-15 07:34:00,
2014-01-15 02:39:00,33.6,32.6,29.84,West,260,0.0,0.0,96,0.00,,,0.00,WeatherCatV1.15B25,2014-01-15 07:39:00,
2014-01-15 02:44:00,33.5,32.5,29.84,West,260,0.0,0.0,96,0.00,,,0.00,WeatherCatV1.15B25,2014-01-15 07:44:00,
2014-01-15 02:49:00,33.5,32.5,29.85,West,260,0.0,0.0,96,0.00,,,0.00,WeatherCatV1.15B25,2014-01-15 07:49:00,
2014-01-15 02:54:00,33.4,32.4,29.85,West,260,0.0,0.0,96,0.00,,,0.00,WeatherCatV1.15B25,2014-01-15 07:54:00,
2014-01-15 02:59:00,33.5,32.5,29.86,West,260,0.0,0.0,96,0.00,,,0.00,WeatherCatV1.15B25,2014-01-15 07:59:00,
2014-01-15 03:04:00,33.5,32.7,29.86,West,260,0.0,0.0,97,0.00,,,0.00,WeatherCatV1.15B25,2014-01-15 08:04:00,
2014-01-15 03:09:00,33.6,32.8,29.86,West,260,0.0,0.0,97,0.00,,,0.00,WeatherCatV1.15B25,2014-01-15 08:09:00,
2014-01-15 03:14:00,33.7,32.9,29.86,West,260,0.0,0.0,97,0.00,,,0.00,WeatherCatV1.15B25,2014-01-15 08:14:00,
2014-01-15 03:19:00,33.6,32.8,29.86,West,260,0.0,0.0,97,0.00,,,0.00,WeatherCatV1.15B25,2014-01-15 08:19:00,
2014-01-15 03:24:00,33.6,32.8,29.86,West,260,0.0,0.0,97,0.00,,,0.00,WeatherCatV1.15B25,2014-01-15 08:24:00,
2014-01-15 03:29:00,33.6,32.8,29.86,West,260,0.0,0.0,97,0.00,,,0.00,WeatherCatV1.15B25,2014-01-15 08:29:00,
2014-01-15 03:34:00,33.5,32.7,29.86,West,260,0.0,1.0,97,0.00,,,0.00,WeatherCatV1.15B25,2014-01-15 08:34:00,
2014-01-15 03:39:00,33.6,32.8,29.87,West,260,0.0,0.0,97,0.00,,,0.00,WeatherCatV1.15B25,2014-01-15 08:39:00,
2014-01-15 03:44:00,33.9,33.1,29.87,SE,146,0.0,1.0,97,0.00,,,0.00,WeatherCatV1.15B25,2014-01-15 08:44:00,
2014-01-15 03:49:00,33.9,33.1,29.87,SE,146,0.0,0.0,97,0.00,,,0.00,WeatherCatV1.15B25,2014-01-15 08:49:00,
2014-01-15 03:54:00,33.9,33.1,29.87,SE,146,0.0,0.0,97,0.00,,,0.00,WeatherCatV1.15B25,2014-01-15 08:54:00,
2014-01-15 03:59:00,33.9,33.1,29.87,SE,146,0.0,0.0,97,0.00,,,0.00,WeatherCatV1.15B25,2014-01-15 08:59:00,
2014-01-15 04:04:00,33.9,33.1,29.87,SE,146,0.0,0.0,97,0.00,,,0.00,WeatherCatV1.15B25,2014-01-15 09:04:00,
2014-01-15 04:09:00,33.7,32.9,29.88,SE,146,0.0,0.0,97,0.00,,,0.00,WeatherCatV1.15B25,2014-01-15 09:09:00,
2014-01-15 04:14:00,33.7,32.9,29.89,SE,146,0.0,0.0,97,0.00,,,0.00,WeatherCatV1.15B25,2014-01-15 09:14:00,
2014-01-15 04:19:00,33.6,32.8,29.89,SE,146,0.0,0.0,97,0.00,,,0.00,WeatherCatV1.15B25,2014-01-15 09:19:00,
2014-01-15 04:24:00,33.5,32.7,29.88,SE,146,0.0,1.0,97,0.00,,,0.00,WeatherCatV1.15B25,2014-01-15 09:24:00,
2014-01-15 04:29:00,33.2,32.4,29.88,SE,146,0.0,0.0,97,0.00,,,0.00,WeatherCatV1.15B25,2014-01-15 09:29:00,
2014-01-15 04:34:00,33.1,32.3,29.89,SE,146,0.0,0.0,97,0.00,,,0.00,WeatherCatV1.15B25,2014-01-15 09:34:00,
2014-01-15 04:39:00,32.9,32.1,29.89,SE,146,0.0,0.0,97,0.00,,,0.00,WeatherCatV1.15B25,2014-01-15 09:39:00,
2014-01-15 04:44:00,32.7,31.9,29.89,SE,146,0.0,0.0,97,0.00,,,0.00,WeatherCatV1.15B25,2014-01-15 09:44:00,
2014-01-15 04:49:00,32.6,31.8,29.89,SE,146,0.0,0.0,97,0.00,,,0.00,WeatherCatV1.15B25,2014-01-15 09:49:00,
2014-01-15 04:54:00,32.5,31.7,29.90,SE,146,0.0,1.0,97,0.00,,,0.00,WeatherCatV1.15B25,2014-01-15 09:54:00,
2014-01-15 04:59:00,32.8,32.0,29.91,SE,146,0.0,0.0,97,0.00,,,0.00,WeatherCatV1.15B25,2014-01-15 09:59:00,
2014-01-15 05:04:00,32.8,32.0,29.91,SE,146,0.0,0.0,97,0.00,,,0.00,WeatherCatV1.15B25,2014-01-15 10:04:00,
2014-01-15 05:09:00,32.7,31.9,29.91,SE,146,0.0,1.0,97,0.00,,,0.00,WeatherCatV1.15B25,2014-01-15 10:09:00,
2014-01-15 05:14:00,32.6,31.8,29.91,SE,146,0.0,1.0,97,0.00,,,0.00,WeatherCatV1.15B25,2014-01-15 10:14:00,
2014-01-15 05:19:00,32.6,31.8,29.92,SE,131,0.0,1.0,97,0.00,,,0.00,WeatherCatV1.15B25,2014-01-15 10:19:00,
2014-01-15 05:24:00,32.6,31.8,29.92,SE,131,0.0,1.0,97,0.00,,,0.00,WeatherCatV1.15B25,2014-01-15 10:24:00,
2014-01-15 05:29:00,32.4,31.6,29.92,SE,131,0.0,1.0,97,0.00,,,0.00,WeatherCatV1.15B25,2014-01-15 10:29:00,
2014-01-15 05:34:00,32.4,31.6,29.93,SE,131,0.0,0.0,97,0.00,,,0.00,WeatherCatV1.15B25,2014-01-15 10:34:00,
2014-01-15 05:39:00,32.5,31.7,29.93,SE,131,0.0,0.0,97,0.00,,,0.00,WeatherCatV1.15B25,2014-01-15 10:39:00,
2014-01-15 05:44:00,32.3,31.5,29.93,SE,131,0.0,1.0,97,0.00,,,0.00,WeatherCatV1.15B25,2014-01-15 10:44:00,
2014-01-15 05:49:00,32.4,31.6,29.94,SE,131,0.0,1.0,97,0.00,,,0.00,WeatherCatV1.15B25,2014-01-15 10:49:00,
2014-01-15 05:54:00,32.4,31.6,29.94,SE,131,0.0,1.0,97,0.00,,,0.00,WeatherCatV1.15B25,2014-01-15 10:54:00,
2014-01-15 05:59:00,32.4,31.6,29.95,ESE,120,0.0,1.0,97,0.00,,,0.00,WeatherCatV1.15B25,2014-01-15 10:59:00,
2014-01-15 06:04:00,32.5,31.7,29.95,ESE,120,0.0,1.0,97,0.00,,,0.00,WeatherCatV1.15B25,2014-01-15 11:04:00,
2014-01-15 06:09:00,32.6,31.8,29.96,ESE,120,0.0,0.0,97,0.00,,,0.00,WeatherCatV1.15B25,2014-01-15 11:09:00,
2014-01-15 06:14:00,32.5,31.7,29.96,East,96,0.0,1.0,97,0.00,,,0.00,WeatherCatV1.15B25,2014-01-15 11:14:00,
2014-01-15 06:19:00,32.7,31.9,29.96,East,96,0.0,0.0,97,0.00,,,0.00,WeatherCatV1.15B25,2014-01-15 11:19:00,
2014-01-15 06:24:00,32.5,31.7,29.96,East,95,0.0,0.0,97,0.00,,,0.00,WeatherCatV1.15B25,2014-01-15 11:24:00,
2014-01-15 06:29:00,32.3,31.5,29.97,East,96,0.0,0.0,97,0.00,,,0.00,WeatherCatV1.15B25,2014-01-15 11:29:00,
2014-01-15 06:34:00,32.1,31.3,29.96,East,96,0.0,0.0,97,0.00,,,0.00,WeatherCatV1.15B25,2014-01-15 11:34:00,
2014-01-15 06:39:00,32.0,31.2,29.96,East,96,0.0,0.0,97,0.00,,,0.00,WeatherCatV1.15B25,2014-01-15 11:39:00,
2014-01-15 06:44:00,31.8,31.0,29.97,East,95,0.0,0.0,97,0.00,,,0.00,WeatherCatV1.15B25,2014-01-15 11:44:00,
2014-01-15 06:49:00,31.5,30.7,29.96,East,96,0.0,0.0,97,0.00,,,0.00,WeatherCatV1.15B25,2014-01-15 11:49:00,
2014-01-15 06:54:00,31.4,30.6,29.97,East,96,0.0,0.0,97,0.00,,,0.00,WeatherCatV1.15B25,2014-01-15 11:54:00,
2014-01-15 06:59:00,31.1,30.4,29.97,East,96,0.0,0.0,97,0.00,,,0.00,WeatherCatV1.15B25,2014-01-15 11:59:00,
2014-01-15 07:04:00,31.0,30.2,29.97,East,95,0.0,0.0,97,0.00,,,0.00,WeatherCatV1.15B25,2014-01-15 12:04:00,
2014-01-15 07:09:00,30.9,30.2,29.97,East,96,0.0,0.0,97,0.00,,,0.00,WeatherCatV1.15B25,2014-01-15 12:09:00,
2014-01-15 07:14:00,30.5,29.8,29.97,East,96,0.0,0.0,97,0.00,,,0.00,WeatherCatV1.15B25,2014-01-15 12:14:00,
2014-01-15 07:19:00,30.4,29.7,29.98,East,96,0.0,0.0,97,0.00,,,0.00,WeatherCatV1.15B25,2014-01-15 12:19:00,
2014-01-15 07:24:00,30.3,29.6,29.98,East,95,0.0,0.0,97,0.00,,,0.00,WeatherCatV1.15B25,2014-01-15 12:24:00,
2014-01-15 07:29:00,30.2,29.5,29.98,East,96,0.0,0.0,97,0.00,,,0.00,WeatherCatV1.15B25,2014-01-15 12:29:00,
2014-01-15 07:34:00,30.4,29.7,29.99,East,96,0.0,0.0,97,0.00,,,0.00,WeatherCatV1.15B25,2014-01-15 12:34:00,
2014-01-15 07:39:00,30.5,29.8,29.99,East,95,0.0,0.0,97,0.00,,,0.00,WeatherCatV1.15B25,2014-01-15 12:39:00,
2014-01-15 07:44:00,30.7,30.0,29.99,East,96,0.0,1.0,97,0.00,,,0.00,WeatherCatV1.15B25,2014-01-15 12:44:00,
2014-01-15 07:49:00,30.7,30.0,29.99,East,96,0.0,0.0,97,0.00,,,0.00,WeatherCatV1.15B25,2014-01-15 12:49:00,
2014-01-15 07:54:00,30.5,29.8,29.99,East,96,0.0,0.0,97,0.00,,,0.00,WeatherCatV1.15B25,2014-01-15 12:54:00,
2014-01-15 07:59:00,30.5,29.8,30.00,East,96,0.0,0.0,97,0.00,,,0.00,WeatherCatV1.15B25,2014-01-15 12:59:00,
2014-01-15 08:04:00,30.8,30.1,30.00,East,96,0.0,0.0,97,0.00,,,0.00,WeatherCatV1.15B25,2014-01-15 13:04:00,
2014-01-15 08:09:00,31.0,30.2,30.00,East,95,0.0,0.0,97,0.00,,,0.00,WeatherCatV1.15B25,2014-01-15 13:09:00,
2014-01-15 08:14:00,31.1,30.4,30.00,East,95,0.0,0.0,97,0.00,,,0.00,WeatherCatV1.15B25,2014-01-15 13:14:00,
2014-01-15 08:19:00,31.2,30.5,30.01,East,96,0.0,0.0,97,0.00,,,0.00,WeatherCatV1.15B25,2014-01-15 13:19:00,
2014-01-15 08:24:00,31.9,31.1,30.01,East,96,0.0,0.0,97,0.00,,,0.00,WeatherCatV1.15B25,2014-01-15 13:24:00,
2014-01-15 08:29:00,32.0,31.2,30.01,East,96,0.0,0.0,97,0.00,,,0.00,WeatherCatV1.15B25,2014-01-15 13:29:00,
2014-01-15 08:34:00,32.7,31.9,30.02,East,95,0.0,0.0,97,0.00,,,0.00,WeatherCatV1.15B25,2014-01-15 13:34:00,
2014-01-15 08:39:00,33.3,32.5,30.02,East,96,0.0,0.0,97,0.00,,,0.00,WeatherCatV1.15B25,2014-01-15 13:39:00,
2014-01-15 08:44:00,34.0,33.2,30.01,East,96,0.0,0.0,97,0.00,,,0.00,WeatherCatV1.15B25,2014-01-15 13:44:00,
2014-01-15 08:49:00,34.4,33.9,30.01,East,96,0.0,0.0,98,0.00,,,0.00,WeatherCatV1.15B25,2014-01-15 13:49:00,
2014-01-15 08:54:00,34.9,34.4,30.01,East,96,0.0,0.0,98,0.00,,,0.00,WeatherCatV1.15B25,2014-01-15 13:54:00,
2014-01-15 08:59:00,35.4,34.9,30.01,East,96,0.0,1.0,98,0.00,,,0.00,WeatherCatV1.15B25,2014-01-15 13:59:00,
2014-01-15 09:04:00,35.2,34.7,30.01,East,96,0.0,1.0,98,0.00,,,0.00,WeatherCatV1.15B25,2014-01-15 14:04:00,
2014-01-15 09:09:00,35.7,35.2,30.01,East,94,0.0,1.0,98,0.00,,,0.00,WeatherCatV1.15B25,2014-01-15 14:09:00,
2014-01-15 09:14:00,35.9,35.4,30.01,East,95,0.0,0.0,98,0.00,,,0.00,WeatherCatV1.15B25,2014-01-15 14:14:00,
2014-01-15 09:19:00,36.3,35.8,30.01,East,98,0.0,0.0,98,0.00,,,0.00,WeatherCatV1.15B25,2014-01-15 14:19:00,
2014-01-15 09:24:00,37.4,36.9,30.01,East,98,0.0,0.0,98,0.00,,,0.00,WeatherCatV1.15B25,2014-01-15 14:24:00,
2014-01-15 09:29:00,37.7,36.9,30.01,ESE,102,0.0,3.0,97,0.00,,,0.00,WeatherCatV1.15B25,2014-01-15 14:29:00,
2014-01-15 09:34:00,37.8,37.0,30.01,ESE,106,0.0,1.0,97,0.00,,,0.00,WeatherCatV1.15B25,2014-01-15 14:34:00,
2014-01-15 09:39:00,37.9,36.1,30.01,East,86,0.0,1.0,93,0.00,,,0.00,WeatherCatV1.15B25,2014-01-15 14:39:00,
2014-01-15 09:44:00,38.6,36.5,30.02,East,86,0.0,0.0,92,0.00,,,0.00,WeatherCatV1.15B25,2014-01-15 14:44:00,
2014-01-15 09:49:00,39.6,37.5,30.01,East,86,0.0,1.0,92,0.00,,,0.00,WeatherCatV1.15B25,2014-01-15 14:49:00,
2014-01-15 09:54:00,40.4,37.7,30.02,East,82,0.0,0.0,90,0.00,,,0.00,WeatherCatV1.15B25,2014-01-15 14:54:00,
2014-01-15 09:59:00,41.1,37.2,30.02,WNW,285,0.0,1.0,86,0.00,,,0.00,WeatherCatV1.15B25,2014-01-15 14:59:00,
2014-01-15 10:04:00,41.3,36.8,30.02,ENE,68,0.0,2.0,84,0.00,,,0.00,WeatherCatV1.15B25,2014-01-15 15:04:00,
2014-01-15 10:09:00,41.5,37.3,30.02,ENE,68,0.0,1.0,85,0.00,,,0.00,WeatherCatV1.15B25,2014-01-15 15:09:00,
2014-01-15 10:14:00,41.3,36.2,30.02,WNW,286,0.0,1.0,82,0.00,,,0.00,WeatherCatV1.15B25,2014-01-15 15:14:00,
2014-01-15 10:19:00,41.4,36.9,30.02,East,94,1.0,1.0,84,0.00,,,0.00,WeatherCatV1.15B25,2014-01-15 15:19:00,
2014-01-15 10:24:00,42.1,37.0,30.02,East,82,0.0,1.0,82,0.00,,,0.00,WeatherCatV1.15B25,2014-01-15 15:24:00,
2014-01-15 10:29:00,42.5,36.8,30.02,West,267,0.0,1.0,80,0.00,,,0.00,WeatherCatV1.15B25,2014-01-15 15:29:00,
2014-01-15 10:34:00,42.8,36.4,30.02,NW,319,1.0,1.0,78,0.00,,,0.00,WeatherCatV1.15B25,2014-01-15 15:34:00,
2014-01-15 10:39:00,42.5,36.1,30.02,SSE,155,0.0,2.0,78,0.00,,,0.00,WeatherCatV1.15B25,2014-01-15 15:39:00,
2014-01-15 10:44:00,42.6,36.2,30.02,West,271,2.0,2.0,78,0.00,,,0.00,WeatherCatV1.15B25,2014-01-15 15:44:00,
2014-01-15 10:49:00,42.5,36.1,30.02,WNW,284,0.0,1.0,78,0.00,,,0.00,WeatherCatV1.15B25,2014-01-15 15:49:00,
2014-01-15 10:54:00,42.7,36.0,30.01,NNE,16,1.0,3.0,77,0.00,,,0.00,WeatherCatV1.15B25,2014-01-15 15:54:00,
2014-01-15 10:59:00,42.8,35.8,30.01,NW,312,0.0,2.0,76,0.00,,,0.00,WeatherCatV1.15B25,2014-01-15 15:59:00,
2014-01-15 11:04:00,43.0,36.3,30.01,NNW,329,0.0,0.0,77,0.00,,,0.00,WeatherCatV1.15B25,2014-01-15 16:04:00,
2014-01-15 11:09:00,43.5,36.1,30.01,ENE,70,1.0,2.0,75,0.00,,,0.00,WeatherCatV1.15B25,2014-01-15 16:09:00,
2014-01-15 11:14:00,43.4,35.3,30.00,WSW,257,0.0,4.0,73,0.00,,,0.00,WeatherCatV1.15B25,2014-01-15 16:14:00,
2014-01-15 11:19:00,43.6,36.2,30.00,WNW,293,1.0,2.0,75,0.00,,,0.00,WeatherCatV1.15B25,2014-01-15 16:19:00,
2014-01-15 11:24:00,43.7,36.0,30.00,ESE,123,0.0,0.0,74,0.00,,,0.00,WeatherCatV1.15B25,2014-01-15 16:24:00,
2014-01-15 11:29:00,44.1,35.7,30.00,East,89,0.0,3.0,72,0.00,,,0.00,WeatherCatV1.15B25,2014-01-15 16:29:00,
2014-01-15 11:34:00,44.6,35.8,30.00,NNW,341,1.0,2.0,71,0.00,,,0.00,WeatherCatV1.15B25,2014-01-15 16:34:00,
2014-01-15 11:39:00,44.9,35.7,30.00,ESE,110,3.0,5.0,70,0.00,,,0.00,WeatherCatV1.15B25,2014-01-15 16:39:00,
2014-01-15 11:44:00,44.7,35.9,29.99,ENE,67,0.0,2.0,71,0.00,,,0.00,WeatherCatV1.15B25,2014-01-15 16:44:00,
2014-01-15 11:49:00,45.0,35.8,29.99,ENE,60,3.0,3.0,70,0.00,,,0.00,WeatherCatV1.15B25,2014-01-15 16:49:00,
2014-01-15 11:54:00,44.8,35.3,29.99,ENE,72,2.0,4.0,69,0.00,,,0.00,WeatherCatV1.15B25,2014-01-15 16:54:00,
2014-01-15 11:59:00,44.8,35.6,29.99,SSE,162,2.0,6.0,70,0.00,,,0.00,WeatherCatV1.15B25,2014-01-15 16:59:00,
2014-01-15 12:04:00,44.4,35.2,29.99,ENE,77,2.0,3.0,70,0.00,,,0.00,WeatherCatV1.15B25,2014-01-15 17:04:00,
2014-01-15 12:09:00,44.4,35.2,29.98,East,98,1.0,5.0,70,0.00,,,0.00,WeatherCatV1.15B25,2014-01-15 17:09:00,
2014-01-15 12:14:00,44.5,35.3,29.98,ENE,57,2.0,5.0,70,0.00,,,0.00,WeatherCatV1.15B25,2014-01-15 17:14:00,
2014-01-15 12:19:00,44.6,35.8,29.98,East,81,4.0,6.0,71,0.00,,,0.00,WeatherCatV1.15B25,2014-01-15 17:19:00,
2014-01-15 12:24:00,44.6,35.8,29.98,East,91,0.0,3.0,71,0.00,,,0.00,WeatherCatV1.15B25,2014-01-15 17:24:00,
2014-01-15 12:29:00,44.7,35.5,29.97,ESE,111,1.0,4.0,70,0.00,,,0.00,WeatherCatV1.15B25,2014-01-15 17:29:00,
2014-01-15 12:34:00,44.4,34.9,29.97,East,96,2.0,9.0,69,0.00,,,0.00,WeatherCatV1.15B25,2014-01-15 17:34:00,
2014-01-15 12:39:00,44.3,35.1,29.97,East,97,3.0,3.0,70,0.00,,,0.00,WeatherCatV1.15B25,2014-01-15 17:39:00,
2014-01-15 12:44:00,44.7,35.5,29.97,East,87,4.0,4.0,70,0.00,,,0.00,WeatherCatV1.15B25,2014-01-15 17:44:00,
2014-01-15 12:49:00,44.9,35.4,29.96,WNW,288,1.0,2.0,69,0.00,,,0.00,WeatherCatV1.15B25,2014-01-15 17:49:00,
2014-01-15 12:54:00,45.1,35.5,29.96,ESE,104,0.0,2.0,69,0.00,,,0.00,WeatherCatV1.15B25,2014-01-15 17:54:00,
2014-01-15 12:59:00,45.3,35.4,29.96,ENE,74,2.0,2.0,68,0.00,,,0.00,WeatherCatV1.15B25,2014-01-15 17:59:00,
2014-01-15 13:04:00,45.3,35.4,29.96,NNW,333,0.0,1.0,68,0.00,,,0.00,WeatherCatV1.15B25,2014-01-15 18:04:00,
2014-01-15 13:09:00,45.3,35.4,29.96,East,92,0.0,1.0,68,0.00,,,0.00,WeatherCatV1.15B25,2014-01-15 18:09:00,
2014-01-15 13:14:00,45.4,35.5,29.96,NNW,337,0.0,2.0,68,0.00,,,0.00,WeatherCatV1.15B25,2014-01-15 18:14:00,
2014-01-15 13:19:00,45.4,35.5,29.96,North,357,0.0,2.0,68,0.00,,,0.00,WeatherCatV1.15B25,2014-01-15 18:19:00,
2014-01-15 13:24:00,45.5,35.2,29.96,ENE,65,1.0,1.0,67,0.00,,,0.00,WeatherCatV1.15B25,2014-01-15 18:24:00,
2014-01-15 13:29:00,45.7,35.4,29.96,NE,50,0.0,1.0,67,0.00,,,0.00,WeatherCatV1.15B25,2014-01-15 18:29:00,
2014-01-15 13:34:00,45.7,35.8,29.96,West,275,0.0,2.0,68,0.00,,,0.00,WeatherCatV1.15B25,2014-01-15 18:34:00,
2014-01-15 13:39:00,45.7,35.4,29.96,SSE,157,0.0,4.0,67,0.00,,,0.00,WeatherCatV1.15B25,2014-01-15 18:39:00,
2014-01-15 13:44:00,45.7,35.8,29.96,West,267,0.0,1.0,68,0.00,,,0.00,WeatherCatV1.15B25,2014-01-15 18:44:00,
2014-01-15 13:49:00,45.7,35.4,29.96,West,276,0.0,1.0,67,0.00,,,0.00,WeatherCatV1.15B25,2014-01-15 18:49:00,
2014-01-15 13:54:00,45.7,35.8,29.95,West,278,1.0,1.0,68,0.00,,,0.00,WeatherCatV1.15B25,2014-01-15 18:54:00,
2014-01-15 13:59:00,45.7,36.1,29.96,West,272,0.0,1.0,69,0.00,,,0.00,WeatherCatV1.15B25,2014-01-15 18:59:00,
2014-01-15 14:04:00,45.8,36.2,29.95,NNE,30,0.0,2.0,69,0.00,,,0.00,WeatherCatV1.15B25,2014-01-15 19:04:00,
2014-01-15 14:09:00,45.7,35.8,29.96,West,281,0.0,1.0,68,0.00,,,0.00,WeatherCatV1.15B25,2014-01-15 19:09:00,
2014-01-15 14:14:00,45.7,36.1,29.96,East,91,3.0,3.0,69,0.00,,,0.00,WeatherCatV1.15B25,2014-01-15 19:14:00,
2014-01-15 14:19:00,45.8,36.2,29.96,East,82,0.0,1.0,69,0.00,,,0.00,WeatherCatV1.15B25,2014-01-15 19:19:00,
2014-01-15 14:24:00,45.8,36.2,29.95,East,96,0.0,3.0,69,0.00,,,0.00,WeatherCatV1.15B25,2014-01-15 19:24:00,
2014-01-15 14:29:00,45.7,36.1,29.96,ENE,65,0.0,0.0,69,0.00,,,0.00,WeatherCatV1.15B25,2014-01-15 19:29:00,
2014-01-15 14:34:00,45.8,36.2,29.96,East,100,2.0,4.0,69,0.00,,,0.00,WeatherCatV1.15B25,2014-01-15 19:34:00,
2014-01-15 14:39:00,45.8,35.8,29.96,ESE,110,0.0,0.0,68,0.00,,,0.00,WeatherCatV1.15B25,2014-01-15 19:39:00,
2014-01-15 14:44:00,45.9,35.6,29.95,ENE,58,1.0,3.0,67,0.00,,,0.00,WeatherCatV1.15B25,2014-01-15 19:44:00,
2014-01-15 14:49:00,45.9,35.2,29.95,East,94,0.0,1.0,66,0.00,,,0.00,WeatherCatV1.15B25,2014-01-15 19:49:00,
2014-01-15 14:54:00,45.9,35.6,29.96,ESE,122,0.0,3.0,67,0.00,,,0.00,WeatherCatV1.15B25,2014-01-15 19:54:00,
2014-01-15 14:59:00,45.8,35.8,29.96,East,82,2.0,3.0,68,0.00,,,0.00,WeatherCatV1.15B25,2014-01-15 19:59:00,
2014-01-15 15:04:00,45.8,36.2,29.95,NNE,20,0.0,0.0,69,0.00,,,0.00,WeatherCatV1.15B25,2014-01-15 20:04:00,
2014-01-15 15:09:00,45.7,35.4,29.95,ENE,66,0.0,3.0,67,0.00,,,0.00,WeatherCatV1.15B25,2014-01-15 20:09:00,
2014-01-15 15:14:00,45.7,35.4,29.95,East,94,1.0,1.0,67,0.00,,,0.00,WeatherCatV1.15B25,2014-01-15 20:14:00,
2014-01-15 15:19:00,45.6,35.3,29.95,East,82,0.0,0.0,67,0.00,,,0.00,WeatherCatV1.15B25,2014-01-15 20:19:00,
2014-01-15 15:24:00,45.5,35.6,29.95,East,82,0.0,0.0,68,0.00,,,0.00,WeatherCatV1.15B25,2014-01-15 20:24:00,
2014-01-15 15:29:00,45.4,35.5,29.95,East,82,0.0,0.0,68,0.00,,,0.00,WeatherCatV1.15B25,2014-01-15 20:29:00,
2014-01-15 15:34:00,45.3,35.4,29.95,East,96,0.0,1.0,68,0.00,,,0.00,WeatherCatV1.15B25,2014-01-15 20:34:00,
2014-01-15 15:39:00,45.1,35.5,29.95,East,96,0.0,0.0,69,0.00,,,0.00,WeatherCatV1.15B25,2014-01-15 20:39:00,
2014-01-15 15:44:00,44.9,35.7,29.95,East,96,0.0,0.0,70,0.00,,,0.00,WeatherCatV1.15B25,2014-01-15 20:44:00,
2014-01-15 15:49:00,44.7,35.5,29.95,East,96,0.0,0.0,70,0.00,,,0.00,WeatherCatV1.15B25,2014-01-15 20:49:00,
2014-01-15 15:54:00,44.5,35.7,29.95,East,96,0.0,0.0,71,0.00,,,0.00,WeatherCatV1.15B25,2014-01-15 20:54:00,
2014-01-15 15:59:00,44.1,35.7,29.95,East,96,0.0,0.0,72,0.00,,,0.00,WeatherCatV1.15B25,2014-01-15 20:59:00,
2014-01-15 16:04:00,43.7,35.6,29.95,East,96,0.0,0.0,73,0.00,,,0.00,WeatherCatV1.15B25,2014-01-15 21:04:00,
2014-01-15 16:09:00,43.3,35.6,29.95,East,96,0.0,0.0,74,0.00,,,0.00,WeatherCatV1.15B25,2014-01-15 21:09:00,
2014-01-15 16:14:00,42.9,35.5,29.95,East,96,0.0,0.0,75,0.00,,,0.00,WeatherCatV1.15B25,2014-01-15 21:14:00,
2014-01-15 16:19:00,42.4,35.0,29.95,East,96,0.0,0.0,75,0.00,,,0.00,WeatherCatV1.15B25,2014-01-15 21:19:00,
2014-01-15 16:24:00,42.0,35.0,29.94,East,96,0.0,0.0,76,0.00,,,0.00,WeatherCatV1.15B25,2014-01-15 21:24:00,
2014-01-15 16:29:00,41.6,34.9,29.95,East,96,0.0,0.0,77,0.00,,,0.00,WeatherCatV1.15B25,2014-01-15 21:29:00,
2014-01-15 16:34:00,41.3,34.6,29.94,East,96,0.0,0.0,77,0.00,,,0.00,WeatherCatV1.15B25,2014-01-15 21:34:00,
2014-01-15 16:39:00,40.9,34.6,29.95,East,96,0.0,0.0,78,0.00,,,0.00,WeatherCatV1.15B25,2014-01-15 21:39:00,
2014-01-15 16:44:00,40.6,34.6,29.95,East,96,0.0,0.0,79,0.00,,,0.00,WeatherCatV1.15B25,2014-01-15 21:44:00,
2014-01-15 16:49:00,40.2,34.5,29.95,East,96,0.0,0.0,80,0.00,,,0.00,WeatherCatV1.15B25,2014-01-15 21:49:00,
2014-01-15 16:54:00,40.2,34.8,29.95,East,96,0.0,0.0,81,0.00,,,0.00,WeatherCatV1.15B25,2014-01-15 21:54:00,
2014-01-15 16:59:00,40.1,34.4,29.95,East,96,0.0,0.0,80,0.00,,,0.00,WeatherCatV1.15B25,2014-01-15 21:59:00,
2014-01-15 17:04:00,39.8,34.5,29.95,East,96,0.0,0.0,81,0.00,,,0.00,WeatherCatV1.15B25,2014-01-15 22:04:00,
2014-01-15 17:09:00,39.5,34.5,29.95,East,96,0.0,0.0,82,0.00,,,0.00,WeatherCatV1.15B25,2014-01-15 22:09:00,
2014-01-15 17:14:00,39.2,34.5,29.95,East,96,0.0,0.0,83,0.00,,,0.00,WeatherCatV1.15B25,2014-01-15 22:14:00,
2014-01-15 17:19:00,39.3,34.9,29.95,East,96,0.0,0.0,84,0.00,,,0.00,WeatherCatV1.15B25,2014-01-15 22:19:00,
2014-01-15 17:24:00,39.4,34.7,29.95,East,96,0.0,0.0,83,0.00,,,0.00,WeatherCatV1.15B25,2014-01-15 22:24:00,
2014-01-15 17:29:00,39.2,34.5,29.95,East,96,0.0,0.0,83,0.00,,,0.00,WeatherCatV1.15B25,2014-01-15 22:29:00,
2014-01-15 17:34:00,39.1,34.7,29.95,East,96,0.0,0.0,84,0.00,,,0.00,WeatherCatV1.15B25,2014-01-15 22:34:00,
2014-01-15 17:39:00,39.1,35.0,29.95,East,96,0.0,0.0,85,0.00,,,0.00,WeatherCatV1.15B25,2014-01-15 22:39:00,
2014-01-15 17:44:00,39.1,35.0,29.95,East,96,0.0,0.0,85,0.00,,,0.00,WeatherCatV1.15B25,2014-01-15 22:44:00,
2014-01-15 17:49:00,39.2,35.4,29.95,East,96,0.0,0.0,86,0.00,,,0.00,WeatherCatV1.15B25,2014-01-15 22:49:00,
2014-01-15 17:54:00,39.3,35.5,29.95,ESE,105,0.0,0.0,86,0.00,,,0.00,WeatherCatV1.15B25,2014-01-15 22:54:00,
2014-01-15 17:59:00,39.4,35.6,29.95,ESE,105,0.0,0.0,86,0.00,,,0.00,WeatherCatV1.15B25,2014-01-15 22:59:00,
2014-01-15 18:04:00,39.3,35.5,29.94,ESE,105,0.0,0.0,86,0.00,,,0.00,WeatherCatV1.15B25,2014-01-15 23:04:00,
2014-01-15 18:09:00,39.2,35.7,29.94,ESE,105,0.0,0.0,87,0.00,,,0.00,WeatherCatV1.15B25,2014-01-15 23:09:00,
2014-01-15 18:14:00,39.0,35.5,29.94,ESE,105,0.0,0.0,87,0.00,,,0.00,WeatherCatV1.15B25,2014-01-15 23:14:00,
2014-01-15 18:19:00,39.0,35.8,29.95,ESE,105,0.0,0.0,88,0.00,,,0.00,WeatherCatV1.15B25,2014-01-15 23:19:00,
2014-01-15 18:24:00,38.9,35.7,29.95,ESE,105,0.0,0.0,88,0.00,,,0.00,WeatherCatV1.15B25,2014-01-15 23:24:00,
2014-01-15 18:29:00,38.7,35.5,29.95,ESE,105,0.0,0.0,88,0.00,,,0.00,WeatherCatV1.15B25,2014-01-15 23:29:00,
2014-01-15 18:34:00,38.6,35.4,29.95,ESE,105,0.0,0.0,88,0.00,,,0.00,WeatherCatV1.15B25,2014-01-15 23:34:00,
2014-01-15 18:39:00,38.4,35.2,29.95,ESE,105,0.0,0.0,88,0.00,,,0.00,WeatherCatV1.15B25,2014-01-15 23:39:00,
2014-01-15 18:44:00,38.1,35.2,29.95,ESE,105,0.0,0.0,89,0.00,,,0.00,WeatherCatV1.15B25,2014-01-15 23:44:00,
2014-01-15 18:49:00,37.9,35.0,29.95,ESE,105,0.0,0.0,89,0.00,,,0.00,WeatherCatV1.15B25,2014-01-15 23:49:00,
2014-01-15 18:54:00,37.9,35.2,29.95,ESE,105,0.0,0.0,90,0.00,,,0.00,WeatherCatV1.15B25,2014-01-15 23:54:00,
2014-01-15 18:59:00,37.8,35.1,29.95,ESE,105,0.0,0.0,90,0.00,,,0.00,WeatherCatV1.15B25,2014-01-15 23:59:00,
2014-01-15 19:04:00,37.7,35.0,29.95,ESE,105,0.0,0.0,90,0.00,,,0.00,WeatherCatV1.15B25,2014-01-16 00:04:00,
2014-01-15 19:09:00,37.7,35.0,29.95,ESE,105,0.0,1.0,90,0.00,,,0.00,WeatherCatV1.15B25,2014-01-16 00:09:00,
2014-01-15 19:14:00,37.6,34.9,29.95,ESE,105,0.0,1.0,90,0.00,,,0.00,WeatherCatV1.15B25,2014-01-16 00:14:00,
2014-01-15 19:19:00,37.5,34.8,29.95,ESE,104,0.0,0.0,90,0.00,,,0.00,WeatherCatV1.15B25,2014-01-16 00:19:00,
2014-01-15 19:24:00,37.4,35.0,29.95,ESE,104,0.0,1.0,91,0.00,,,0.00,WeatherCatV1.15B25,2014-01-16 00:24:00,
2014-01-15 19:29:00,37.2,34.5,29.95,ESE,104,0.0,1.0,90,0.00,,,0.00,WeatherCatV1.15B25,2014-01-16 00:29:00,
2014-01-15 19:34:00,37.1,34.7,29.95,ESE,104,0.0,1.0,91,0.00,,,0.00,WeatherCatV1.15B25,2014-01-16 00:34:00,
2014-01-15 19:39:00,36.9,34.5,29.95,ESE,104,0.0,1.0,91,0.00,,,0.00,WeatherCatV1.15B25,2014-01-16 00:39:00,
2014-01-15 19:44:00,36.9,34.5,29.95,ESE,104,0.0,1.0,91,0.00,,,0.00,WeatherCatV1.15B25,2014-01-16 00:44:00,
2014-01-15 19:49:00,36.8,34.4,29.95,ESE,104,0.0,0.0,91,0.00,,,0.00,WeatherCatV1.15B25,2014-01-16 00:49:00,
2014-01-15 19:54:00,36.7,34.6,29.95,ESE,104,0.0,1.0,92,0.00,,,0.00,WeatherCatV1.15B25,2014-01-16 00:54:00,
2014-01-15 19:59:00,36.6,34.5,29.95,ESE,104,0.0,0.0,92,0.00,,,0.00,WeatherCatV1.15B25,2014-01-16 00:59:00,
2014-01-15 20:04:00,36.4,34.3,29.94,ESE,104,0.0,0.0,92,0.00,,,0.00,WeatherCatV1.15B25,2014-01-16 01:04:00,
2014-01-15 20:09:00,36.3,34.2,29.94,ESE,104,0.0,0.0,92,0.00,,,0.00,WeatherCatV1.15B25,2014-01-16 01:09:00,
2014-01-15 20:14:00,36.5,34.7,29.94,ESE,104,0.0,0.0,93,0.00,,,0.00,WeatherCatV1.15B25,2014-01-16 01:14:00,
2014-01-15 20:19:00,36.5,34.7,29.94,ESE,104,0.0,0.0,93,0.00,,,0.00,WeatherCatV1.15B25,2014-01-16 01:19:00,
2014-01-15 20:24:00,36.6,34.8,29.94,ESE,104,0.0,1.0,93,0.00,,,0.00,WeatherCatV1.15B25,2014-01-16 01:24:00,
2014-01-15 20:29:00,36.6,34.8,29.93,ESE,104,0.0,0.0,93,0.00,,,0.00,WeatherCatV1.15B25,2014-01-16 01:29:00,
2014-01-15 20:34:00,36.4,34.3,29.93,ESE,104,0.0,0.0,92,0.00,,,0.00,WeatherCatV1.15B25,2014-01-16 01:34:00,
2014-01-15 20:39:00,36.0,33.9,29.93,ESE,104,0.0,0.0,92,0.00,,,0.00,WeatherCatV1.15B25,2014-01-16 01:39:00,
2014-01-15 20:44:00,35.7,33.6,29.93,ESE,104,0.0,0.0,92,0.00,,,0.00,WeatherCatV1.15B25,2014-01-16 01:44:00,
2014-01-15 20:49:00,35.6,33.8,29.92,ESE,104,0.0,0.0,93,0.00,,,0.00,WeatherCatV1.15B25,2014-01-16 01:49:00,
2014-01-15 20:54:00,35.9,34.3,29.92,ESE,104,0.0,1.0,94,0.00,,,0.00,WeatherCatV1.15B25,2014-01-16 01:54:00,
2014-01-15 20:59:00,36.1,34.5,29.92,ESE,104,0.0,0.0,94,0.00,,,0.00,WeatherCatV1.15B25,2014-01-16 01:59:00,
2014-01-15 21:04:00,36.0,34.2,29.92,ESE,104,0.0,0.0,93,0.00,,,0.00,WeatherCatV1.15B25,2014-01-16 02:04:00,
2014-01-15 21:09:00,35.9,34.1,29.92,ESE,104,0.0,1.0,93,0.00,,,0.00,WeatherCatV1.15B25,2014-01-16 02:09:00,
2014-01-15 21:14:00,35.6,33.8,29.92,ESE,104,0.0,1.0,93,0.00,,,0.00,WeatherCatV1.15B25,2014-01-16 02:14:00,
2014-01-15 21:19:00,35.7,34.1,29.92,ESE,104,0.0,1.0,94,0.00,,,0.00,WeatherCatV1.15B25,2014-01-16 02:19:00,
2014-01-15 21:24:00,35.7,34.1,29.91,ESE,108,1.0,1.0,94,0.00,,,0.00,WeatherCatV1.15B25,2014-01-16 02:24:00,
2014-01-15 21:29:00,35.7,34.1,29.91,East,101,1.0,2.0,94,0.00,,,0.00,WeatherCatV1.15B25,2014-01-16 02:29:00,
2014-01-15 21:34:00,35.6,34.0,29.92,East,101,0.0,0.0,94,0.00,,,0.00,WeatherCatV1.15B25,2014-01-16 02:34:00,
2014-01-15 21:39:00,35.5,33.9,29.92,East,101,0.0,1.0,94,0.00,,,0.00,WeatherCatV1.15B25,2014-01-16 02:39:00,
2014-01-15 21:44:00,35.6,34.0,29.91,East,101,0.0,0.0,94,0.00,,,0.00,WeatherCatV1.15B25,2014-01-16 02:44:00,
2014-01-15 21:49:00,35.6,34.0,29.91,East,101,0.0,1.0,94,0.00,,,0.00,WeatherCatV1.15B25,2014-01-16 02:49:00,
2014-01-15 21:54:00,35.6,34.0,29.91,East,101,0.0,0.0,94,0.00,,,0.00,WeatherCatV1.15B25,2014-01-16 02:54:00,
2014-01-15 21:59:00,35.3,33.7,29.91,East,101,0.0,0.0,94,0.00,,,0.00,WeatherCatV1.15B25,2014-01-16 02:59:00,
2014-01-15 22:04:00,34.9,33.4,29.91,East,101,0.0,0.0,94,0.00,,,0.00,WeatherCatV1.15B25,2014-01-16 03:04:00,
2014-01-15 22:09:00,34.5,33.0,29.91,East,101,0.0,0.0,94,0.00,,,0.00,WeatherCatV1.15B25,2014-01-16 03:09:00,
2014-01-15 22:14:00,34.4,32.9,29.91,East,101,0.0,0.0,94,0.00,,,0.00,WeatherCatV1.15B25,2014-01-16 03:14:00,
2014-01-15 22:19:00,34.4,32.9,29.91,East,101,0.0,0.0,94,0.00,,,0.00,WeatherCatV1.15B25,2014-01-16 03:19:00,
2014-01-15 22:24:00,34.4,33.1,29.91,East,101,0.0,0.0,95,0.00,,,0.00,WeatherCatV1.15B25,2014-01-16 03:24:00,
2014-01-15 22:29:00,34.6,33.3,29.91,East,101,0.0,0.0,95,0.00,,,0.00,WeatherCatV1.15B25,2014-01-16 03:29:00,
2014-01-15 22:34:00,34.7,33.4,29.91,East,101,0.0,1.0,95,0.00,,,0.00,WeatherCatV1.15B25,2014-01-16 03:34:00,
2014-01-15 22:39:00,34.8,33.5,29.91,East,101,0.0,1.0,95,0.00,,,0.00,WeatherCatV1.15B25,2014-01-16 03:39:00,
2014-01-15 22:44:00,34.9,33.6,29.90,East,101,0.0,0.0,95,0.00,,,0.00,WeatherCatV1.15B25,2014-01-16 03:44:00,
2014-01-15 22:49:00,34.9,33.6,29.90,East,101,1.0,1.0,95,0.00,,,0.00,WeatherCatV1.15B25,2014-01-16 03:49:00,
2014-01-15 22:54:00,35.0,34.0,29.90,East,101,0.0,1.0,96,0.00,,,0.00,WeatherCatV1.15B25,2014-01-16 03:54:00,
2014-01-15 22:59:00,35.1,34.1,29.90,East,101,0.0,1.0,96,0.00,,,0.00,WeatherCatV1.15B25,2014-01-16 03:59:00,
2014-01-15 23:04:00,34.9,33.9,29.90,East,101,0.0,0.0,96,0.00,,,0.00,WeatherCatV1.15B25,2014-01-16 04:04:00,
2014-01-15 23:09:00,34.6,33.3,29.90,East,101,0.0,0.0,95,0.00,,,0.00,WeatherCatV1.15B25,2014-01-16 04:09:00,
2014-01-15 23:14:00,34.2,32.9,29.89,East,101,0.0,0.0,95,0.00,,,0.00,WeatherCatV1.15B25,2014-01-16 04:14:00,
2014-01-15 23:19:00,33.9,32.6,29.89,East,101,0.0,0.0,95,0.00,,,0.00,WeatherCatV1.15B25,2014-01-16 04:19:00,
2014-01-15 23:24:00,33.8,32.5,29.90,East,101,0.0,0.0,95,0.00,,,0.00,WeatherCatV1.15B25,2014-01-16 04:24:00,
2014-01-15 23:29:00,33.8,32.8,29.89,East,101,0.0,0.0,96,0.00,,,0.00,WeatherCatV1.15B25,2014-01-16 04:29:00,
2014-01-15 23:34:00,33.5,32.2,29.90,East,101,0.0,0.0,95,0.00,,,0.00,WeatherCatV1.15B25,2014-01-16 04:34:00,
2014-01-15 23:45:00,33.0,31.7,29.90,East,101,0.0,0.0,95,0.00,,,0.00,WeatherCatV1.24B11,2014-01-16 04:45:00,
2014-01-15 23:50:00,33.0,32.0,29.90,East,101,0.0,0.0,96,0.00,,,0.00,WeatherCatV1.24B11,2014-01-16 04:50:00,
2014-01-15 23:55:00,33.3,32.3,29.90,East,101,0.0,0.0,96,0.00,,,0.00,WeatherCatV1.24B11,2014-01-16 04:55:00,